LTAY/DNZ METAR and TAF weather

Enter ICAO airport designator
Station Type Date Time Source
LTAY METAR 2022/01/18 06:50 UTC NOAA

LTAY 180650Z 00000KT 4500 BR FEW015 SCT033 BKN090 M02/M03 Q1016


Station Type Date Time Source
LTAY Decoded METAR 2022/01/18 06:50 UTC NOAA

Cardak, Turkey (LTAY) 37-47N 029-42E
Jan 18, 2022 - 01:50 AM EST / 2022.01.18 0650 UTC
Wind: Calm:0
Visibility: 2 mile(s):0
Sky conditions: mostly cloudy
Weather: mist
Temperature: 28 F (-2 C)
Dew Point: 26 F (-3 C)
Relative Humidity: 92%
Pressure (altimeter): 30.00 in. Hg (1016 hPa)
ob: LTAY 180650Z 00000KT 4500 BR FEW015 SCT033 BKN090 M02/M03 Q1016
cycle: 7

Station Type Date Time Source
LTAY TAF UTC NOAA

Error!

Example: see airport list